DIRECCIÓN GENERAL DE AERONÁUTICA CIVIL
DIRECCIÓN METEOROLÓGICA DE CHILE
INFORMACIÓN METAR Y TAF

FIR PUERTO MONTT

Estación: SCQP
SPECI SCQP 092022Z 19012KT 9999 VA NSC 28/11 Q1013=

TAF SCQP 091631Z 0918/1018 19010KT CAVOK TX27/0919Z TN11/1009Z BECMG 1002/1004 VRB02KT PROB40 TEMPO 1008/1013 2000 BR BKN002 BECMG 1014/ 1016 24007KT=

Estación: SCVD
METAR SCVD 092000Z 16013KT CAVOK 28/10 Q1014=

TAF SCVD 091040Z 0912/0924 VRB02KT CAVOK TN08/0912Z TX26/0919Z TEMPO 0912/0913 0900 FG BKN002 BECMG 0913/0915 18006KT BECMG 0915/0917 16009KT=

Estación: SCJO
METAR SCJO 092000Z 18008KT CAVOK 25/11 Q1017=

TAF SCJO 091039Z 0912/0924 VRB02KT 4000 BR SCT040 TN11/0912Z TX24/0919Z PROB30 TEMPO 0912/0913 1000 BCFG BKN003 BECMG 0913/0915 16008KT 9999 NSW SCT030 BECMG 0916/0918 CAVOK=

Estación: SCTE
METAR SCTE 092000Z 17014KT CAVOK 19/10 Q1020 NOSIG=

TAF SCTE 091632Z 0918/1018 19010KT CAVOK TX22/0919Z TN11/1009Z BECMG 1004/1006 18007KT BECMG 1006/1008 BKN010 BECMG 1014/1016 20012KT SCT030=

Estación: SCPQ
METAR SCPQ 092000Z 15009KT 080V190 CAVOK 19/11 Q1020=

TAF SCPQ 091038Z 0912/0924 19005KT 9999 BKN033 TN10/0912Z TX20/0919Z BECMG 0914/0916 SCT036 BECMG 0916/0918 18010KT=

Estación: SCON
METAR SCON 092000Z VRB02KT 9999 BKN030 18/11 Q1021=

TAF SCON NIL=

Estación: SCTN
METAR SCTN 092000Z 20012KT CAVOK 16/10 Q1020=

TAF SCTN 091038Z 0912/0924 25005KT 9999 BKN040 TN12/0912Z TX19/0919Z BECMG 0915/0917 19010KT SCT040=

Estación: SCFT
METAR SCFT 092000Z VRB05KT CAVOK 23/06 Q1017=

TAF SCFT NIL=

Estación: SCAP
METAR SCAP 092000Z 26018KT CAVOK 21/08 Q1022=

TAF SCAP NIL=

Estación: SCMK
METAR SCMK 092000Z 25008KT 9999 BKN030 18/11 Q1020=

TAF SCMK 091038Z 0912/0924 27006KT 9999 BKN040 TN11/0912Z TX18/0919Z BECMG 0916/0918 23010KT=

Estación: SCAS
METAR SCAS 092000Z 26012KT 9999 BKN030 19/12 Q1019=

TAF SCAS NIL=

Estación: SCCY
METAR SCCY 092000Z VRB06KT 9999 FEW036 20/07 Q1017=

TAF SCCY 091037Z 0912/0924 26008G19KT 9999 BKN033 TN11/0912Z TX20/0919Z BECMG 0920/0922 26007KT SCT040=

Estación: SCBA
METAR SCBA 092000Z 29028G40KT 9999 FEW040 19/07 Q1015=

TAF SCBA 091633Z 0918/1018 30025G35KT CAVOK TX19/0919Z TN09/1009Z BECMG 1002/1004 30007KT BECMG 1014/1016 30012KT=

Estación: SCCC
METAR SCCC 092000Z 29018KT 9999 FEW040 23/01 Q1012=

TAF SCCC NIL=

Estación: SCHR
METAR SCHR 092000Z 20013G24KT 160V260 9999 FEW040 23/02 Q1011=

TAF SCHR 091029Z 0912/1000 28010KT 9999 SCT040 TX22/0918Z TN11/1012Z BECMG 0919/0921 CAVOK=


Volver